Terminal Aerodrome Forecast
Issued by NWS

Home | Current Version | Previous Version | Text Only | Print | Product List | Glossary On
Versions: 1 2 3 4 5 6 7 8 9 10 11 12 13 14 15 16 17 18
233
FTUS46 KPDT 262321
TAFRDM
TAF
KRDM 262321Z 2700/2724 20010KT P6SM VCSH SCT040 OVC060
     FM270300 19005KT P6SM BKN050 OVC070
     FM271200 18005KT P6SM SCT060 BKN090
     FM271900 29011G19KT P6SM VCSH SCT050 BKN080=

USA.gov is the U.S. government's official web portal to all federal, state and local government web resources and services.